sensor_id;sensor_type;location;lat;lon;timestamp;P1;durP1;ratioP1;P2;durP2;ratioP2
80744;SDS011;70143;52.396;16.950;2023-06-04T00:01:20;8.20;;;3.35;;
80744;SDS011;70143;52.396;16.950;2023-06-04T00:03:45;9.00;;;3.30;;
80744;SDS011;70143;52.396;16.950;2023-06-04T00:06:12;6.53;;;3.25;;
80744;SDS011;70143;52.396;16.950;2023-06-04T00:08:37;7.15;;;4.10;;
80744;SDS011;70143;52.396;16.950;2023-06-04T00:11:03;8.82;;;3.67;;
80744;SDS011;70143;52.396;16.950;2023-06-04T00:13:28;11.68;;;4.15;;
80744;SDS011;70143;52.396;16.950;2023-06-04T00:15:54;7.70;;;3.83;;
80744;SDS011;70143;52.396;16.950;2023-06-04T00:18:19;7.80;;;3.80;;
80744;SDS011;70143;52.396;16.950;2023-06-04T00:20:45;6.22;;;2.65;;
80744;SDS011;70143;52.396;16.950;2023-06-04T00:23:10;7.97;;;3.05;;
80744;SDS011;70143;52.396;16.950;2023-06-04T00:25:35;7.70;;;2.80;;
80744;SDS011;70143;52.396;16.950;2023-06-04T00:28:01;7.68;;;2.88;;
80744;SDS011;70143;52.396;16.950;2023-06-04T00:30:26;7.05;;;2.95;;
80744;SDS011;70143;52.396;16.950;2023-06-04T00:32:52;11.88;;;4.03;;
80744;SDS011;70143;52.396;16.950;2023-06-04T00:35:17;8.13;;;3.42;;
80744;SDS011;70143;52.396;16.950;2023-06-04T00:37:43;7.80;;;3.55;;
80744;SDS011;70143;52.396;16.950;2023-06-04T00:40:08;8.07;;;3.08;;
80744;SDS011;70143;52.396;16.950;2023-06-04T00:42:34;9.90;;;3.90;;
80744;SDS011;70143;52.396;16.950;2023-06-04T00:44:59;9.07;;;3.58;;
80744;SDS011;70143;52.396;16.950;2023-06-04T00:47:25;11.25;;;4.25;;
80744;SDS011;70143;52.396;16.950;2023-06-04T00:49:50;7.90;;;3.42;;
80744;SDS011;70143;52.396;16.950;2023-06-04T00:52:22;8.82;;;3.15;;
80744;SDS011;70143;52.396;16.950;2023-06-04T00:54:47;8.73;;;3.53;;
80744;SDS011;70143;52.396;16.950;2023-06-04T00:57:13;7.55;;;2.83;;
80744;SDS011;70143;52.396;16.950;2023-06-04T00:59:38;7.35;;;2.80;;
80744;SDS011;70143;52.396;16.950;2023-06-04T01:02:06;7.25;;;2.97;;
80744;SDS011;70143;52.396;16.950;2023-06-04T01:07:28;11.80;;;3.65;;
80744;SDS011;70143;52.396;16.950;2023-06-04T01:09:55;10.25;;;2.83;;
80744;SDS011;70143;52.396;16.950;2023-06-04T01:12:20;9.82;;;3.80;;
80744;SDS011;70143;52.396;16.950;2023-06-04T01:14:46;9.95;;;3.28;;
80744;SDS011;70143;52.396;16.950;2023-06-04T01:20:05;7.07;;;3.67;;
80744;SDS011;70143;52.396;16.950;2023-06-04T01:22:35;8.60;;;2.95;;
80744;SDS011;70143;52.396;16.950;2023-06-04T01:25:05;9.98;;;3.38;;
80744;SDS011;70143;52.396;16.950;2023-06-04T01:27:37;8.38;;;3.60;;
80744;SDS011;70143;52.396;16.950;2023-06-04T01:30:03;8.40;;;3.33;;
80744;SDS011;70143;52.396;16.950;2023-06-04T01:32:29;8.40;;;4.22;;
80744;SDS011;70143;52.396;16.950;2023-06-04T01:34:55;10.98;;;4.45;;
80744;SDS011;70143;52.396;16.950;2023-06-04T01:37:21;6.85;;;3.55;;
80744;SDS011;70143;52.396;16.950;2023-06-04T01:39:46;9.82;;;3.67;;
80744;SDS011;70143;52.396;16.950;2023-06-04T01:42:12;10.60;;;3.85;;
80744;SDS011;70143;52.396;16.950;2023-06-04T01:44:37;7.60;;;3.30;;
80744;SDS011;70143;52.396;16.950;2023-06-04T01:47:02;8.57;;;3.08;;
80744;SDS011;70143;52.396;16.950;2023-06-04T01:49:28;11.02;;;4.60;;
80744;SDS011;70143;52.396;16.950;2023-06-04T01:51:56;10.73;;;3.53;;
80744;SDS011;70143;52.396;16.950;2023-06-04T01:54:21;8.45;;;3.08;;
80744;SDS011;70143;52.396;16.950;2023-06-04T01:56:47;7.30;;;3.50;;
80744;SDS011;70143;52.396;16.950;2023-06-04T01:59:12;6.50;;;2.90;;
80744;SDS011;70143;52.396;16.950;2023-06-04T02:01:38;10.00;;;3.30;;
80744;SDS011;70143;52.396;16.950;2023-06-04T02:04:03;6.55;;;3.33;;
80744;SDS011;70143;52.396;16.950;2023-06-04T02:06:30;8.18;;;3.38;;
80744;SDS011;70143;52.396;16.950;2023-06-04T02:08:55;9.65;;;4.50;;
80744;SDS011;70143;52.396;16.950;2023-06-04T02:11:21;7.30;;;2.85;;
80744;SDS011;70143;52.396;16.950;2023-06-04T02:13:46;7.30;;;2.63;;
80744;SDS011;70143;52.396;16.950;2023-06-04T02:16:12;7.65;;;3.72;;
80744;SDS011;70143;52.396;16.950;2023-06-04T02:18:37;8.20;;;3.40;;
80744;SDS011;70143;52.396;16.950;2023-06-04T02:21:03;8.18;;;3.60;;
80744;SDS011;70143;52.396;16.950;2023-06-04T02:23:28;7.93;;;3.45;;
80744;SDS011;70143;52.396;16.950;2023-06-04T02:25:54;10.13;;;2.83;;
80744;SDS011;70143;52.396;16.950;2023-06-04T02:28:19;7.57;;;3.20;;
80744;SDS011;70143;52.396;16.950;2023-06-04T02:30:45;5.28;;;2.75;;
80744;SDS011;70143;52.396;16.950;2023-06-04T02:33:11;9.13;;;3.30;;
80744;SDS011;70143;52.396;16.950;2023-06-04T02:35:36;6.82;;;3.45;;
80744;SDS011;70143;52.396;16.950;2023-06-04T02:38:02;7.75;;;3.75;;
80744;SDS011;70143;52.396;16.950;2023-06-04T02:40:27;9.00;;;3.65;;
80744;SDS011;70143;52.396;16.950;2023-06-04T02:42:54;7.03;;;3.00;;
80744;SDS011;70143;52.396;16.950;2023-06-04T02:50:12;7.22;;;3.65;;
80744;SDS011;70143;52.396;16.950;2023-06-04T02:52:39;7.47;;;3.03;;
80744;SDS011;70143;52.396;16.950;2023-06-04T02:55:05;7.45;;;4.13;;
80744;SDS011;70143;52.396;16.950;2023-06-04T02:57:31;9.15;;;3.40;;
80744;SDS011;70143;52.396;16.950;2023-06-04T02:59:56;11.93;;;4.35;;
80744;SDS011;70143;52.396;16.950;2023-06-04T03:02:22;9.30;;;3.90;;
80744;SDS011;70143;52.396;16.950;2023-06-04T03:04:47;9.95;;;3.78;;
80744;SDS011;70143;52.396;16.950;2023-06-04T03:07:13;8.35;;;3.88;;
80744;SDS011;70143;52.396;16.950;2023-06-04T03:09:38;10.07;;;4.53;;
80744;SDS011;70143;52.396;16.950;2023-06-04T03:12:04;8.20;;;3.85;;
80744;SDS011;70143;52.396;16.950;2023-06-04T03:14:30;8.32;;;3.83;;
80744;SDS011;70143;52.396;16.950;2023-06-04T03:16:57;10.02;;;3.97;;
80744;SDS011;70143;52.396;16.950;2023-06-04T03:19:24;7.85;;;3.50;;
80744;SDS011;70143;52.396;16.950;2023-06-04T03:21:49;9.48;;;4.28;;
80744;SDS011;70143;52.396;16.950;2023-06-04T03:24:15;8.75;;;4.07;;
80744;SDS011;70143;52.396;16.950;2023-06-04T03:26:40;9.32;;;4.72;;
80744;SDS011;70143;52.396;16.950;2023-06-04T03:29:05;9.07;;;3.80;;
80744;SDS011;70143;52.396;16.950;2023-06-04T03:31:31;7.15;;;3.83;;
80744;SDS011;70143;52.396;16.950;2023-06-04T03:33:57;8.77;;;3.65;;
80744;SDS011;70143;52.396;16.950;2023-06-04T03:36:23;7.63;;;3.70;;
80744;SDS011;70143;52.396;16.950;2023-06-04T03:38:48;8.25;;;3.30;;
80744;SDS011;70143;52.396;16.950;2023-06-04T03:41:14;8.05;;;3.30;;
80744;SDS011;70143;52.396;16.950;2023-06-04T03:43:39;8.43;;;3.58;;
80744;SDS011;70143;52.396;16.950;2023-06-04T03:46:04;7.38;;;3.67;;
80744;SDS011;70143;52.396;16.950;2023-06-04T03:48:30;7.78;;;3.53;;
80744;SDS011;70143;52.396;16.950;2023-06-04T03:50:55;8.52;;;3.55;;
80744;SDS011;70143;52.396;16.950;2023-06-04T03:53:21;8.00;;;3.17;;
80744;SDS011;70143;52.396;16.950;2023-06-04T03:55:46;9.27;;;3.15;;
80744;SDS011;70143;52.396;16.950;2023-06-04T03:58:12;6.10;;;3.10;;
80744;SDS011;70143;52.396;16.950;2023-06-04T04:00:37;7.00;;;2.88;;
80744;SDS011;70143;52.396;16.950;2023-06-04T04:03:02;7.40;;;3.08;;
80744;SDS011;70143;52.396;16.950;2023-06-04T04:05:28;9.82;;;3.60;;
80744;SDS011;70143;52.396;16.950;2023-06-04T04:07:53;8.05;;;3.13;;
80744;SDS011;70143;52.396;16.950;2023-06-04T04:10:19;8.15;;;3.45;;
80744;SDS011;70143;52.396;16.950;2023-06-04T04:12:44;7.90;;;3.25;;
80744;SDS011;70143;52.396;16.950;2023-06-04T04:15:10;7.45;;;3.33;;
80744;SDS011;70143;52.396;16.950;2023-06-04T04:17:35;4.80;;;2.42;;
80744;SDS011;70143;52.396;16.950;2023-06-04T04:20:01;7.07;;;2.60;;
80744;SDS011;70143;52.396;16.950;2023-06-04T04:22:26;7.45;;;3.53;;
80744;SDS011;70143;52.396;16.950;2023-06-04T04:24:52;10.90;;;3.17;;
80744;SDS011;70143;52.396;16.950;2023-06-04T04:27:17;7.43;;;3.42;;
80744;SDS011;70143;52.396;16.950;2023-06-04T04:29:42;11.70;;;3.13;;
80744;SDS011;70143;52.396;16.950;2023-06-04T04:32:08;7.10;;;3.03;;
80744;SDS011;70143;52.396;16.950;2023-06-04T04:34:34;8.48;;;2.88;;
80744;SDS011;70143;52.396;16.950;2023-06-04T04:36:59;5.70;;;2.72;;
80744;SDS011;70143;52.396;16.950;2023-06-04T04:39:24;5.57;;;2.60;;
80744;SDS011;70143;52.396;16.950;2023-06-04T04:41:51;6.18;;;2.83;;
80744;SDS011;70143;52.396;16.950;2023-06-04T04:44:16;10.02;;;2.58;;
80744;SDS011;70143;52.396;16.950;2023-06-04T04:46:42;7.03;;;2.53;;
80744;SDS011;70143;52.396;16.950;2023-06-04T04:49:08;6.68;;;2.50;;
80744;SDS011;70143;52.396;16.950;2023-06-04T04:51:35;7.43;;;2.50;;
80744;SDS011;70143;52.396;16.950;2023-06-04T04:54:00;4.85;;;2.00;;
80744;SDS011;70143;52.396;16.950;2023-06-04T04:56:26;5.35;;;2.10;;
80744;SDS011;70143;52.396;16.950;2023-06-04T04:58:53;6.53;;;2.15;;
80744;SDS011;70143;52.396;16.950;2023-06-04T05:01:19;6.90;;;2.05;;
80744;SDS011;70143;52.396;16.950;2023-06-04T05:03:45;6.55;;;2.00;;
80744;SDS011;70143;52.396;16.950;2023-06-04T05:06:10;6.80;;;2.33;;
80744;SDS011;70143;52.396;16.950;2023-06-04T05:08:36;7.20;;;2.25;;
80744;SDS011;70143;52.396;16.950;2023-06-04T05:11:02;5.85;;;2.67;;
80744;SDS011;70143;52.396;16.950;2023-06-04T05:13:27;7.78;;;2.55;;
80744;SDS011;70143;52.396;16.950;2023-06-04T05:15:52;6.88;;;2.25;;
80744;SDS011;70143;52.396;16.950;2023-06-04T05:18:18;4.88;;;2.17;;
80744;SDS011;70143;52.396;16.950;2023-06-04T05:20:44;6.97;;;2.45;;
80744;SDS011;70143;52.396;16.950;2023-06-04T05:23:10;5.32;;;2.00;;
80744;SDS011;70143;52.396;16.950;2023-06-04T05:25:37;5.55;;;2.58;;
80744;SDS011;70143;52.396;16.950;2023-06-04T05:28:02;6.18;;;2.20;;
80744;SDS011;70143;52.396;16.950;2023-06-04T05:30:28;4.97;;;2.03;;
80744;SDS011;70143;52.396;16.950;2023-06-04T05:32:53;5.95;;;1.92;;
80744;SDS011;70143;52.396;16.950;2023-06-04T05:35:18;7.05;;;2.28;;
80744;SDS011;70143;52.396;16.950;2023-06-04T05:37:44;5.85;;;2.30;;
80744;SDS011;70143;52.396;16.950;2023-06-04T05:40:10;5.30;;;2.17;;
80744;SDS011;70143;52.396;16.950;2023-06-04T05:42:36;6.82;;;2.05;;
80744;SDS011;70143;52.396;16.950;2023-06-04T05:45:02;6.63;;;1.90;;
80744;SDS011;70143;52.396;16.950;2023-06-04T05:47:28;5.53;;;1.92;;
80744;SDS011;70143;52.396;16.950;2023-06-04T05:49:53;7.07;;;2.40;;
80744;SDS011;70143;52.396;16.950;2023-06-04T05:52:20;5.07;;;1.83;;
80744;SDS011;70143;52.396;16.950;2023-06-04T05:54:45;4.70;;;1.75;;
80744;SDS011;70143;52.396;16.950;2023-06-04T05:57:11;6.30;;;2.30;;
80744;SDS011;70143;52.396;16.950;2023-06-04T05:59:36;4.28;;;1.70;;
80744;SDS011;70143;52.396;16.950;2023-06-04T06:02:02;5.10;;;1.92;;
80744;SDS011;70143;52.396;16.950;2023-06-04T06:04:28;4.75;;;1.75;;
80744;SDS011;70143;52.396;16.950;2023-06-04T06:06:53;3.65;;;1.60;;
80744;SDS011;70143;52.396;16.950;2023-06-04T06:09:20;3.58;;;1.40;;
80744;SDS011;70143;52.396;16.950;2023-06-04T06:14:10;5.00;;;1.77;;
80744;SDS011;70143;52.396;16.950;2023-06-04T06:16:36;6.68;;;1.63;;
80744;SDS011;70143;52.396;16.950;2023-06-04T06:19:02;14.40;;;6.68;;
80744;SDS011;70143;52.396;16.950;2023-06-04T06:21:27;10.27;;;5.55;;
80744;SDS011;70143;52.396;16.950;2023-06-04T06:23:55;5.88;;;2.80;;
80744;SDS011;70143;52.396;16.950;2023-06-04T06:26:21;4.88;;;2.05;;
80744;SDS011;70143;52.396;16.950;2023-06-04T06:28:46;3.60;;;1.55;;
80744;SDS011;70143;52.396;16.950;2023-06-04T06:31:13;6.63;;;1.88;;
80744;SDS011;70143;52.396;16.950;2023-06-04T06:33:38;4.57;;;1.58;;
80744;SDS011;70143;52.396;16.950;2023-06-04T06:36:04;7.38;;;2.80;;
80744;SDS011;70143;52.396;16.950;2023-06-04T06:38:29;5.00;;;2.33;;
80744;SDS011;70143;52.396;16.950;2023-06-04T06:40:54;5.80;;;1.70;;
80744;SDS011;70143;52.396;16.950;2023-06-04T06:43:20;3.78;;;1.60;;
80744;SDS011;70143;52.396;16.950;2023-06-04T06:45:45;6.95;;;1.60;;
80744;SDS011;70143;52.396;16.950;2023-06-04T06:48:11;3.92;;;1.40;;
80744;SDS011;70143;52.396;16.950;2023-06-04T06:50:36;4.25;;;1.63;;
80744;SDS011;70143;52.396;16.950;2023-06-04T06:53:02;4.97;;;1.50;;
80744;SDS011;70143;52.396;16.950;2023-06-04T06:55:28;3.97;;;1.73;;
80744;SDS011;70143;52.396;16.950;2023-06-04T06:57:53;5.63;;;1.30;;
80744;SDS011;70143;52.396;16.950;2023-06-04T07:00:19;4.88;;;1.67;;
80744;SDS011;70143;52.396;16.950;2023-06-04T07:02:44;5.05;;;1.50;;
80744;SDS011;70143;52.396;16.950;2023-06-04T07:05:10;3.58;;;1.50;;
80744;SDS011;70143;52.396;16.950;2023-06-04T07:07:36;6.00;;;1.80;;
80744;SDS011;70143;52.396;16.950;2023-06-04T07:10:01;5.25;;;1.70;;
80744;SDS011;70143;52.396;16.950;2023-06-04T07:12:27;5.25;;;1.70;;
80744;SDS011;70143;52.396;16.950;2023-06-04T07:14:53;5.40;;;1.50;;
80744;SDS011;70143;52.396;16.950;2023-06-04T07:17:18;4.45;;;1.52;;
80744;SDS011;70143;52.396;16.950;2023-06-04T07:19:44;3.88;;;1.50;;
80744;SDS011;70143;52.396;16.950;2023-06-04T07:22:09;4.35;;;1.50;;
80744;SDS011;70143;52.396;16.950;2023-06-04T07:24:34;6.82;;;1.92;;
80744;SDS011;70143;52.396;16.950;2023-06-04T07:27:00;5.95;;;1.60;;
80744;SDS011;70143;52.396;16.950;2023-06-04T07:29:26;6.13;;;1.60;;
80744;SDS011;70143;52.396;16.950;2023-06-04T07:31:51;7.05;;;1.70;;
80744;SDS011;70143;52.396;16.950;2023-06-04T07:34:17;4.70;;;1.20;;
80744;SDS011;70143;52.396;16.950;2023-06-04T07:36:42;4.40;;;1.40;;
80744;SDS011;70143;52.396;16.950;2023-06-04T07:39:07;6.50;;;1.50;;
80744;SDS011;70143;52.396;16.950;2023-06-04T07:41:33;7.93;;;3.80;;
80744;SDS011;70143;52.396;16.950;2023-06-04T07:43:58;8.82;;;3.38;;
80744;SDS011;70143;52.396;16.950;2023-06-04T07:46:24;6.13;;;1.90;;
80744;SDS011;70143;52.396;16.950;2023-06-04T07:48:49;5.40;;;1.60;;
80744;SDS011;70143;52.396;16.950;2023-06-04T07:51:15;3.47;;;1.50;;
80744;SDS011;70143;52.396;16.950;2023-06-04T07:53:40;5.45;;;1.70;;
80744;SDS011;70143;52.396;16.950;2023-06-04T07:56:06;4.30;;;1.15;;
80744;SDS011;70143;52.396;16.950;2023-06-04T07:58:32;3.22;;;1.40;;
80744;SDS011;70143;52.396;16.950;2023-06-04T08:00:58;3.03;;;1.35;;
80744;SDS011;70143;52.396;16.950;2023-06-04T08:03:24;4.07;;;1.55;;
80744;SDS011;70143;52.396;16.950;2023-06-04T08:05:49;4.30;;;1.63;;
80744;SDS011;70143;52.396;16.950;2023-06-04T08:08:15;5.75;;;1.52;;
80744;SDS011;70143;52.396;16.950;2023-06-04T08:10:40;5.32;;;1.10;;
80744;SDS011;70143;52.396;16.950;2023-06-04T08:13:06;6.40;;;1.42;;
80744;SDS011;70143;52.396;16.950;2023-06-04T08:15:31;3.25;;;1.10;;
80744;SDS011;70143;52.396;16.950;2023-06-04T08:17:57;4.55;;;1.00;;
80744;SDS011;70143;52.396;16.950;2023-06-04T08:20:22;5.88;;;1.38;;
80744;SDS011;70143;52.396;16.950;2023-06-04T08:22:49;7.07;;;1.25;;
80744;SDS011;70143;52.396;16.950;2023-06-04T08:25:15;2.92;;;1.00;;
80744;SDS011;70143;52.396;16.950;2023-06-04T08:27:40;4.50;;;1.10;;
80744;SDS011;70143;52.396;16.950;2023-06-04T08:30:07;2.00;;;0.90;;
80744;SDS011;70143;52.396;16.950;2023-06-04T08:32:33;5.90;;;1.25;;
80744;SDS011;70143;52.396;16.950;2023-06-04T08:34:58;2.70;;;0.90;;
80744;SDS011;70143;52.396;16.950;2023-06-04T08:37:24;3.88;;;1.42;;
80744;SDS011;70143;52.396;16.950;2023-06-04T08:39:49;3.97;;;1.40;;
80744;SDS011;70143;52.396;16.950;2023-06-04T08:42:37;2.65;;;1.13;;
80744;SDS011;70143;52.396;16.950;2023-06-04T08:45:07;5.45;;;1.20;;
80744;SDS011;70143;52.396;16.950;2023-06-04T08:47:35;3.88;;;1.25;;
80744;SDS011;70143;52.396;16.950;2023-06-04T08:50:02;4.72;;;0.90;;
80744;SDS011;70143;52.396;16.950;2023-06-04T08:52:33;3.58;;;1.27;;
80744;SDS011;70143;52.396;16.950;2023-06-04T08:54:59;2.85;;;1.40;;
80744;SDS011;70143;52.396;16.950;2023-06-04T08:57:26;16.25;;;1.75;;
80744;SDS011;70143;52.396;16.950;2023-06-04T08:59:51;5.00;;;1.20;;
80744;SDS011;70143;52.396;16.950;2023-06-04T09:02:17;5.72;;;1.48;;
80744;SDS011;70143;52.396;16.950;2023-06-04T09:04:43;4.68;;;1.17;;
80744;SDS011;70143;52.396;16.950;2023-06-04T09:07:10;5.47;;;1.20;;
80744;SDS011;70143;52.396;16.950;2023-06-04T09:09:38;3.95;;;1.15;;
80744;SDS011;70143;52.396;16.950;2023-06-04T09:12:05;4.60;;;1.30;;
80744;SDS011;70143;52.396;16.950;2023-06-04T09:14:35;3.20;;;1.33;;
80744;SDS011;70143;52.396;16.950;2023-06-04T09:17:00;3.75;;;1.30;;
80744;SDS011;70143;52.396;16.950;2023-06-04T09:19:26;3.50;;;1.30;;
80744;SDS011;70143;52.396;16.950;2023-06-04T09:21:55;4.68;;;1.30;;
80744;SDS011;70143;52.396;16.950;2023-06-04T09:24:22;2.25;;;0.90;;
80744;SDS011;70143;52.396;16.950;2023-06-04T09:26:49;5.97;;;1.70;;
80744;SDS011;70143;52.396;16.950;2023-06-04T09:29:16;3.28;;;1.35;;
80744;SDS011;70143;52.396;16.950;2023-06-04T09:31:45;4.47;;;1.35;;
80744;SDS011;70143;52.396;16.950;2023-06-04T09:34:12;6.05;;;1.13;;
80744;SDS011;70143;52.396;16.950;2023-06-04T09:36:38;2.60;;;1.00;;
80744;SDS011;70143;52.396;16.950;2023-06-04T09:39:03;3.53;;;1.40;;
80744;SDS011;70143;52.396;16.950;2023-06-04T09:41:29;3.22;;;1.00;;
80744;SDS011;70143;52.396;16.950;2023-06-04T09:44:01;3.53;;;1.20;;
80744;SDS011;70143;52.396;16.950;2023-06-04T09:46:27;2.97;;;1.23;;
80744;SDS011;70143;52.396;16.950;2023-06-04T09:48:59;2.70;;;1.02;;
80744;SDS011;70143;52.396;16.950;2023-06-04T09:51:31;4.65;;;1.55;;
80744;SDS011;70143;52.396;16.950;2023-06-04T09:54:00;4.15;;;1.20;;
80744;SDS011;70143;52.396;16.950;2023-06-04T09:56:27;2.85;;;1.17;;
80744;SDS011;70143;52.396;16.950;2023-06-04T09:58:59;2.58;;;1.30;;
80744;SDS011;70143;52.396;16.950;2023-06-04T10:01:25;2.03;;;0.82;;
80744;SDS011;70143;52.396;16.950;2023-06-04T10:03:53;7.00;;;3.35;;
80744;SDS011;70143;52.396;16.950;2023-06-04T10:06:19;4.00;;;1.63;;
80744;SDS011;70143;52.396;16.950;2023-06-04T10:08:45;4.32;;;1.58;;
80744;SDS011;70143;52.396;16.950;2023-06-04T10:11:13;6.47;;;1.48;;
80744;SDS011;70143;52.396;16.950;2023-06-04T10:13:51;4.28;;;1.27;;
80744;SDS011;70143;52.396;16.950;2023-06-04T10:16:19;2.35;;;1.10;;
80744;SDS011;70143;52.396;16.950;2023-06-04T10:18:45;4.43;;;1.17;;
80744;SDS011;70143;52.396;16.950;2023-06-04T10:23:39;2.25;;;1.00;;
80744;SDS011;70143;52.396;16.950;2023-06-04T10:26:04;3.08;;;1.23;;
80744;SDS011;70143;52.396;16.950;2023-06-04T10:28:30;4.65;;;1.80;;
80744;SDS011;70143;52.396;16.950;2023-06-04T10:30:59;3.97;;;1.15;;
80744;SDS011;70143;52.396;16.950;2023-06-04T10:33:24;6.43;;;0.90;;
80744;SDS011;70143;52.396;16.950;2023-06-04T10:35:52;5.53;;;1.50;;
80744;SDS011;70143;52.396;16.950;2023-06-04T10:38:19;3.08;;;0.90;;
80744;SDS011;70143;52.396;16.950;2023-06-04T10:40:44;5.28;;;1.40;;
80744;SDS011;70143;52.396;16.950;2023-06-04T10:43:11;4.68;;;1.20;;
80744;SDS011;70143;52.396;16.950;2023-06-04T10:45:37;5.95;;;1.80;;
80744;SDS011;70143;52.396;16.950;2023-06-04T10:48:04;3.17;;;1.40;;
80744;SDS011;70143;52.396;16.950;2023-06-04T10:50:31;3.05;;;1.10;;
80744;SDS011;70143;52.396;16.950;2023-06-04T10:52:58;2.53;;;0.90;;
80744;SDS011;70143;52.396;16.950;2023-06-04T10:55:24;7.63;;;1.30;;
80744;SDS011;70143;52.396;16.950;2023-06-04T10:57:54;3.97;;;1.20;;
80744;SDS011;70143;52.396;16.950;2023-06-04T11:00:21;3.55;;;0.95;;
80744;SDS011;70143;52.396;16.950;2023-06-04T11:07:45;3.80;;;1.40;;
80744;SDS011;70143;52.396;16.950;2023-06-04T11:10:13;3.25;;;1.27;;
80744;SDS011;70143;52.396;16.950;2023-06-04T11:12:46;2.90;;;1.08;;
80744;SDS011;70143;52.396;16.950;2023-06-04T11:15:13;3.83;;;1.02;;
80744;SDS011;70143;52.396;16.950;2023-06-04T11:17:52;5.15;;;1.30;;
80744;SDS011;70143;52.396;16.950;2023-06-04T11:20:19;3.03;;;0.80;;
80744;SDS011;70143;52.396;16.950;2023-06-04T11:25:25;2.75;;;1.08;;
80744;SDS011;70143;52.396;16.950;2023-06-04T11:27:52;3.03;;;0.90;;
80744;SDS011;70143;52.396;16.950;2023-06-04T11:30:19;2.00;;;1.00;;
80744;SDS011;70143;52.396;16.950;2023-06-04T11:32:45;3.38;;;1.10;;
80744;SDS011;70143;52.396;16.950;2023-06-04T11:35:10;4.57;;;0.90;;
80744;SDS011;70143;52.396;16.950;2023-06-04T11:37:37;2.90;;;0.80;;
80744;SDS011;70143;52.396;16.950;2023-06-04T11:40:14;3.05;;;0.90;;
80744;SDS011;70143;52.396;16.950;2023-06-04T11:42:43;2.40;;;0.95;;
80744;SDS011;70143;52.396;16.950;2023-06-04T11:45:14;3.22;;;1.20;;
80744;SDS011;70143;52.396;16.950;2023-06-04T11:47:54;2.67;;;1.25;;
80744;SDS011;70143;52.396;16.950;2023-06-04T11:50:21;3.85;;;0.93;;
80744;SDS011;70143;52.396;16.950;2023-06-04T11:52:48;4.68;;;1.00;;
80744;SDS011;70143;52.396;16.950;2023-06-04T11:55:14;3.53;;;1.27;;
80744;SDS011;70143;52.396;16.950;2023-06-04T11:57:40;3.58;;;1.20;;
80744;SDS011;70143;52.396;16.950;2023-06-04T12:00:07;2.35;;;0.88;;
80744;SDS011;70143;52.396;16.950;2023-06-04T12:02:33;3.35;;;1.00;;
80744;SDS011;70143;52.396;16.950;2023-06-04T12:04:58;2.95;;;1.10;;
80744;SDS011;70143;52.396;16.950;2023-06-04T12:07:24;3.40;;;1.00;;
80744;SDS011;70143;52.396;16.950;2023-06-04T12:09:49;5.03;;;1.10;;
80744;SDS011;70143;52.396;16.950;2023-06-04T12:12:20;5.57;;;1.30;;
80744;SDS011;70143;52.396;16.950;2023-06-04T12:14:47;4.10;;;1.10;;
80744;SDS011;70143;52.396;16.950;2023-06-04T12:17:13;1.95;;;1.20;;
80744;SDS011;70143;52.396;16.950;2023-06-04T12:22:26;4.07;;;1.00;;
80744;SDS011;70143;52.396;16.950;2023-06-04T12:24:53;2.38;;;0.93;;
80744;SDS011;70143;52.396;16.950;2023-06-04T12:27:20;4.32;;;1.30;;
80744;SDS011;70143;52.396;16.950;2023-06-04T12:32:22;3.10;;;1.15;;
80744;SDS011;70143;52.396;16.950;2023-06-04T12:34:48;3.10;;;1.30;;
80744;SDS011;70143;52.396;16.950;2023-06-04T12:37:13;3.80;;;1.00;;
80744;SDS011;70143;52.396;16.950;2023-06-04T12:39:39;3.25;;;1.20;;
80744;SDS011;70143;52.396;16.950;2023-06-04T12:42:07;3.10;;;1.00;;
80744;SDS011;70143;52.396;16.950;2023-06-04T12:44:32;2.53;;;1.10;;
80744;SDS011;70143;52.396;16.950;2023-06-04T12:46:59;4.00;;;1.15;;
80744;SDS011;70143;52.396;16.950;2023-06-04T12:49:24;2.75;;;1.10;;
80744;SDS011;70143;52.396;16.950;2023-06-04T12:51:50;2.03;;;0.90;;
80744;SDS011;70143;52.396;16.950;2023-06-04T12:54:15;2.33;;;1.10;;
80744;SDS011;70143;52.396;16.950;2023-06-04T12:56:41;2.97;;;1.02;;
80744;SDS011;70143;52.396;16.950;2023-06-04T12:59:08;5.32;;;1.17;;
80744;SDS011;70143;52.396;16.950;2023-06-04T13:01:33;3.53;;;1.40;;
80744;SDS011;70143;52.396;16.950;2023-06-04T13:03:59;6.80;;;1.52;;
80744;SDS011;70143;52.396;16.950;2023-06-04T13:06:25;4.05;;;1.20;;
80744;SDS011;70143;52.396;16.950;2023-06-04T13:08:51;2.97;;;0.90;;
80744;SDS011;70143;52.396;16.950;2023-06-04T13:11:17;3.92;;;1.20;;
80744;SDS011;70143;52.396;16.950;2023-06-04T13:13:43;2.95;;;1.30;;
80744;SDS011;70143;52.396;16.950;2023-06-04T13:16:09;3.75;;;1.20;;
80744;SDS011;70143;52.396;16.950;2023-06-04T13:18:34;2.63;;;1.23;;
80744;SDS011;70143;52.396;16.950;2023-06-04T13:23:25;4.00;;;1.33;;
80744;SDS011;70143;52.396;16.950;2023-06-04T13:28:16;3.90;;;1.27;;
80744;SDS011;70143;52.396;16.950;2023-06-04T13:33:07;4.07;;;1.20;;
80744;SDS011;70143;52.396;16.950;2023-06-04T13:37:58;5.22;;;1.20;;
80744;SDS011;70143;52.396;16.950;2023-06-04T13:40:23;2.72;;;1.35;;
80744;SDS011;70143;52.396;16.950;2023-06-04T13:42:49;4.22;;;1.48;;
80744;SDS011;70143;52.396;16.950;2023-06-04T13:45:14;4.35;;;1.60;;
80744;SDS011;70143;52.396;16.950;2023-06-04T13:47:40;4.68;;;1.30;;
80744;SDS011;70143;52.396;16.950;2023-06-04T13:50:05;4.40;;;2.22;;
80744;SDS011;70143;52.396;16.950;2023-06-04T13:52:32;2.55;;;1.35;;
80744;SDS011;70143;52.396;16.950;2023-06-04T13:54:57;3.33;;;1.58;;
80744;SDS011;70143;52.396;16.950;2023-06-04T13:57:24;3.92;;;1.70;;
80744;SDS011;70143;52.396;16.950;2023-06-04T13:59:49;3.13;;;1.25;;
80744;SDS011;70143;52.396;16.950;2023-06-04T14:02:15;2.83;;;1.17;;
80744;SDS011;70143;52.396;16.950;2023-06-04T14:04:40;4.18;;;2.45;;
80744;SDS011;70143;52.396;16.950;2023-06-04T14:07:06;4.28;;;1.80;;
80744;SDS011;70143;52.396;16.950;2023-06-04T14:09:32;6.18;;;1.70;;
80744;SDS011;70143;52.396;16.950;2023-06-04T14:11:57;5.13;;;1.92;;
80744;SDS011;70143;52.396;16.950;2023-06-04T14:14:23;6.47;;;1.75;;
80744;SDS011;70143;52.396;16.950;2023-06-04T14:16:49;3.50;;;1.55;;
80744;SDS011;70143;52.396;16.950;2023-06-04T14:19:14;4.50;;;1.67;;
80744;SDS011;70143;52.396;16.950;2023-06-04T14:21:41;4.15;;;2.65;;
80744;SDS011;70143;52.396;16.950;2023-06-04T14:24:07;3.72;;;1.52;;
80744;SDS011;70143;52.396;16.950;2023-06-04T14:26:34;3.72;;;1.67;;
80744;SDS011;70143;52.396;16.950;2023-06-04T14:29:00;3.40;;;1.77;;
80744;SDS011;70143;52.396;16.950;2023-06-04T14:31:25;3.47;;;2.05;;
80744;SDS011;70143;52.396;16.950;2023-06-04T14:33:50;3.30;;;2.35;;
80744;SDS011;70143;52.396;16.950;2023-06-04T14:36:16;4.10;;;1.98;;
80744;SDS011;70143;52.396;16.950;2023-06-04T14:38:41;3.25;;;2.10;;
80744;SDS011;70143;52.396;16.950;2023-06-04T14:41:07;5.50;;;2.00;;
80744;SDS011;70143;52.396;16.950;2023-06-04T14:43:32;4.05;;;1.70;;
80744;SDS011;70143;52.396;16.950;2023-06-04T14:45:58;4.45;;;2.42;;
80744;SDS011;70143;52.396;16.950;2023-06-04T14:48:24;2.95;;;2.28;;
80744;SDS011;70143;52.396;16.950;2023-06-04T14:50:49;4.25;;;2.33;;
80744;SDS011;70143;52.396;16.950;2023-06-04T14:53:15;3.60;;;2.38;;
80744;SDS011;70143;52.396;16.950;2023-06-04T14:55:40;4.65;;;2.65;;
80744;SDS011;70143;52.396;16.950;2023-06-04T14:58:06;3.67;;;2.13;;
80744;SDS011;70143;52.396;16.950;2023-06-04T15:00:32;2.90;;;2.20;;
80744;SDS011;70143;52.396;16.950;2023-06-04T15:03:00;5.40;;;2.60;;
80744;SDS011;70143;52.396;16.950;2023-06-04T15:05:26;4.22;;;2.22;;